sensor_id;sensor_type;location;lat;lon;timestamp;P1;durP1;ratioP1;P2;durP2;ratioP2
54881;SDS011;40775;51.448;4.742;2024-03-08T00:00:10;12.93;;;7.07;;
54881;SDS011;40775;51.448;4.742;2024-03-08T00:02:41;15.07;;;7.05;;
54881;SDS011;40775;51.448;4.742;2024-03-08T00:05:09;13.30;;;6.68;;
54881;SDS011;40775;51.448;4.742;2024-03-08T00:07:36;12.80;;;7.18;;
54881;SDS011;40775;51.448;4.742;2024-03-08T00:10:05;14.05;;;7.70;;
54881;SDS011;40775;51.448;4.742;2024-03-08T00:12:40;15.13;;;7.35;;
54881;SDS011;40775;51.448;4.742;2024-03-08T00:15:16;15.10;;;8.02;;
54881;SDS011;40775;51.448;4.742;2024-03-08T00:17:45;12.38;;;7.13;;
54881;SDS011;40775;51.448;4.742;2024-03-08T00:20:14;14.25;;;7.93;;
54881;SDS011;40775;51.448;4.742;2024-03-08T00:22:44;11.60;;;6.95;;
54881;SDS011;40775;51.448;4.742;2024-03-08T00:25:12;11.43;;;6.75;;
54881;SDS011;40775;51.448;4.742;2024-03-08T00:27:39;15.80;;;6.68;;
54881;SDS011;40775;51.448;4.742;2024-03-08T00:30:07;12.77;;;7.43;;
54881;SDS011;40775;51.448;4.742;2024-03-08T00:32:35;13.20;;;7.35;;
54881;SDS011;40775;51.448;4.742;2024-03-08T00:35:03;12.55;;;7.43;;
54881;SDS011;40775;51.448;4.742;2024-03-08T00:37:34;12.90;;;7.35;;
54881;SDS011;40775;51.448;4.742;2024-03-08T00:40:01;12.00;;;6.80;;
54881;SDS011;40775;51.448;4.742;2024-03-08T00:42:28;15.68;;;7.13;;
54881;SDS011;40775;51.448;4.742;2024-03-08T00:44:55;14.93;;;8.20;;
54881;SDS011;40775;51.448;4.742;2024-03-08T00:47:24;14.80;;;7.38;;
54881;SDS011;40775;51.448;4.742;2024-03-08T00:49:52;13.15;;;7.38;;
54881;SDS011;40775;51.448;4.742;2024-03-08T00:52:19;10.18;;;7.22;;
54881;SDS011;40775;51.448;4.742;2024-03-08T00:54:46;14.68;;;7.00;;
54881;SDS011;40775;51.448;4.742;2024-03-08T00:57:13;12.50;;;7.55;;
54881;SDS011;40775;51.448;4.742;2024-03-08T00:59:40;12.38;;;6.95;;
54881;SDS011;40775;51.448;4.742;2024-03-08T01:02:08;13.07;;;8.02;;
54881;SDS011;40775;51.448;4.742;2024-03-08T01:04:35;12.25;;;6.57;;
54881;SDS011;40775;51.448;4.742;2024-03-08T01:07:02;10.27;;;6.30;;
54881;SDS011;40775;51.448;4.742;2024-03-08T01:09:29;11.20;;;6.32;;
54881;SDS011;40775;51.448;4.742;2024-03-08T01:11:56;12.45;;;6.57;;
54881;SDS011;40775;51.448;4.742;2024-03-08T01:14:24;14.57;;;7.60;;
54881;SDS011;40775;51.448;4.742;2024-03-08T01:16:55;12.30;;;6.57;;
54881;SDS011;40775;51.448;4.742;2024-03-08T01:19:22;12.73;;;7.45;;
54881;SDS011;40775;51.448;4.742;2024-03-08T01:21:50;11.50;;;6.65;;
54881;SDS011;40775;51.448;4.742;2024-03-08T01:24:17;13.38;;;6.93;;
54881;SDS011;40775;51.448;4.742;2024-03-08T01:26:45;16.80;;;8.65;;
54881;SDS011;40775;51.448;4.742;2024-03-08T01:29:13;11.80;;;6.93;;
54881;SDS011;40775;51.448;4.742;2024-03-08T01:31:40;9.80;;;6.20;;
54881;SDS011;40775;51.448;4.742;2024-03-08T01:34:07;10.85;;;6.72;;
54881;SDS011;40775;51.448;4.742;2024-03-08T01:36:34;13.93;;;7.03;;
54881;SDS011;40775;51.448;4.742;2024-03-08T01:39:03;13.75;;;7.63;;
54881;SDS011;40775;51.448;4.742;2024-03-08T01:41:34;12.18;;;6.70;;
54881;SDS011;40775;51.448;4.742;2024-03-08T01:44:02;11.00;;;6.70;;
54881;SDS011;40775;51.448;4.742;2024-03-08T01:46:30;11.43;;;6.15;;
54881;SDS011;40775;51.448;4.742;2024-03-08T01:48:57;14.88;;;7.55;;
54881;SDS011;40775;51.448;4.742;2024-03-08T01:51:27;10.82;;;6.13;;
54881;SDS011;40775;51.448;4.742;2024-03-08T01:53:57;12.18;;;6.28;;
54881;SDS011;40775;51.448;4.742;2024-03-08T01:56:27;15.60;;;7.78;;
54881;SDS011;40775;51.448;4.742;2024-03-08T01:58:55;11.93;;;6.85;;
54881;SDS011;40775;51.448;4.742;2024-03-08T02:01:22;14.10;;;7.53;;
54881;SDS011;40775;51.448;4.742;2024-03-08T02:03:52;13.73;;;7.18;;
54881;SDS011;40775;51.448;4.742;2024-03-08T02:06:19;11.25;;;6.30;;
54881;SDS011;40775;51.448;4.742;2024-03-08T02:08:46;11.93;;;6.55;;
54881;SDS011;40775;51.448;4.742;2024-03-08T02:11:14;12.13;;;7.43;;
54881;SDS011;40775;51.448;4.742;2024-03-08T02:13:42;11.98;;;6.53;;
54881;SDS011;40775;51.448;4.742;2024-03-08T02:16:09;12.35;;;6.63;;
54881;SDS011;40775;51.448;4.742;2024-03-08T02:18:36;12.30;;;7.72;;
54881;SDS011;40775;51.448;4.742;2024-03-08T02:21:06;10.57;;;6.25;;
54881;SDS011;40775;51.448;4.742;2024-03-08T02:23:35;12.15;;;7.28;;
54881;SDS011;40775;51.448;4.742;2024-03-08T02:26:03;11.40;;;7.65;;
54881;SDS011;40775;51.448;4.742;2024-03-08T02:28:31;13.27;;;6.93;;
54881;SDS011;40775;51.448;4.742;2024-03-08T02:30:58;10.48;;;6.30;;
54881;SDS011;40775;51.448;4.742;2024-03-08T02:33:26;12.07;;;6.68;;
54881;SDS011;40775;51.448;4.742;2024-03-08T02:35:55;13.02;;;7.03;;
54881;SDS011;40775;51.448;4.742;2024-03-08T02:38:23;9.00;;;5.82;;
54881;SDS011;40775;51.448;4.742;2024-03-08T02:40:52;10.23;;;6.22;;
54881;SDS011;40775;51.448;4.742;2024-03-08T02:43:21;12.25;;;6.22;;
54881;SDS011;40775;51.448;4.742;2024-03-08T02:45:49;14.65;;;6.45;;
54881;SDS011;40775;51.448;4.742;2024-03-08T02:48:19;11.95;;;6.85;;
54881;SDS011;40775;51.448;4.742;2024-03-08T02:50:47;12.85;;;6.88;;
54881;SDS011;40775;51.448;4.742;2024-03-08T02:53:14;11.80;;;6.85;;
54881;SDS011;40775;51.448;4.742;2024-03-08T02:55:41;13.75;;;7.15;;
54881;SDS011;40775;51.448;4.742;2024-03-08T02:58:08;11.10;;;6.47;;
54881;SDS011;40775;51.448;4.742;2024-03-08T03:00:37;13.20;;;6.65;;
54881;SDS011;40775;51.448;4.742;2024-03-08T03:03:06;13.05;;;6.63;;
54881;SDS011;40775;51.448;4.742;2024-03-08T03:05:34;11.80;;;7.07;;
54881;SDS011;40775;51.448;4.742;2024-03-08T03:08:01;11.25;;;6.60;;
54881;SDS011;40775;51.448;4.742;2024-03-08T03:10:35;9.65;;;5.88;;
54881;SDS011;40775;51.448;4.742;2024-03-08T03:13:03;12.38;;;6.45;;
54881;SDS011;40775;51.448;4.742;2024-03-08T03:15:35;11.77;;;6.27;;
54881;SDS011;40775;51.448;4.742;2024-03-08T03:18:03;11.55;;;6.55;;
54881;SDS011;40775;51.448;4.742;2024-03-08T03:20:34;12.38;;;6.70;;
54881;SDS011;40775;51.448;4.742;2024-03-08T03:25:42;11.52;;;6.18;;
54881;SDS011;40775;51.448;4.742;2024-03-08T03:28:09;16.00;;;6.80;;
54881;SDS011;40775;51.448;4.742;2024-03-08T03:30:40;11.35;;;5.30;;
54881;SDS011;40775;51.448;4.742;2024-03-08T03:33:07;10.45;;;6.18;;
54881;SDS011;40775;51.448;4.742;2024-03-08T03:35:35;11.55;;;6.57;;
54881;SDS011;40775;51.448;4.742;2024-03-08T03:38:03;11.98;;;6.38;;
54881;SDS011;40775;51.448;4.742;2024-03-08T03:40:31;8.75;;;5.90;;
54881;SDS011;40775;51.448;4.742;2024-03-08T03:43:01;9.30;;;6.10;;
54881;SDS011;40775;51.448;4.742;2024-03-08T03:45:29;10.02;;;5.70;;
54881;SDS011;40775;51.448;4.742;2024-03-08T03:48:03;10.30;;;6.55;;
54881;SDS011;40775;51.448;4.742;2024-03-08T03:50:33;10.52;;;5.82;;
54881;SDS011;40775;51.448;4.742;2024-03-08T03:53:02;13.38;;;6.05;;
54881;SDS011;40775;51.448;4.742;2024-03-08T03:55:34;12.50;;;6.25;;
54881;SDS011;40775;51.448;4.742;2024-03-08T03:58:03;9.25;;;5.65;;
54881;SDS011;40775;51.448;4.742;2024-03-08T04:00:30;11.82;;;6.28;;
54881;SDS011;40775;51.448;4.742;2024-03-08T04:02:58;9.45;;;5.75;;
54881;SDS011;40775;51.448;4.742;2024-03-08T04:05:27;12.40;;;6.57;;
54881;SDS011;40775;51.448;4.742;2024-03-08T04:07:54;11.05;;;6.15;;
54881;SDS011;40775;51.448;4.742;2024-03-08T04:10:21;12.63;;;5.57;;
54881;SDS011;40775;51.448;4.742;2024-03-08T04:12:48;8.45;;;5.63;;
54881;SDS011;40775;51.448;4.742;2024-03-08T04:15:15;10.50;;;6.20;;
54881;SDS011;40775;51.448;4.742;2024-03-08T04:17:42;10.00;;;6.40;;
54881;SDS011;40775;51.448;4.742;2024-03-08T04:20:13;13.00;;;6.57;;
54881;SDS011;40775;51.448;4.742;2024-03-08T04:22:40;9.88;;;5.97;;
54881;SDS011;40775;51.448;4.742;2024-03-08T04:25:08;10.32;;;6.22;;
54881;SDS011;40775;51.448;4.742;2024-03-08T04:27:36;12.07;;;5.55;;
54881;SDS011;40775;51.448;4.742;2024-03-08T04:30:03;12.77;;;5.95;;
54881;SDS011;40775;51.448;4.742;2024-03-08T04:32:34;11.85;;;6.88;;
54881;SDS011;40775;51.448;4.742;2024-03-08T04:35:02;9.75;;;5.72;;
54881;SDS011;40775;51.448;4.742;2024-03-08T04:37:30;7.97;;;5.82;;
54881;SDS011;40775;51.448;4.742;2024-03-08T04:39:57;11.15;;;5.85;;
54881;SDS011;40775;51.448;4.742;2024-03-08T04:42:25;10.38;;;6.60;;
54881;SDS011;40775;51.448;4.742;2024-03-08T04:44:56;10.23;;;5.93;;
54881;SDS011;40775;51.448;4.742;2024-03-08T04:47:23;7.43;;;5.35;;
54881;SDS011;40775;51.448;4.742;2024-03-08T04:49:51;8.80;;;5.47;;
54881;SDS011;40775;51.448;4.742;2024-03-08T04:52:19;11.23;;;5.97;;
54881;SDS011;40775;51.448;4.742;2024-03-08T04:54:46;9.25;;;4.72;;
54881;SDS011;40775;51.448;4.742;2024-03-08T04:57:13;12.98;;;6.63;;
54881;SDS011;40775;51.448;4.742;2024-03-08T04:59:40;11.25;;;6.95;;
54881;SDS011;40775;51.448;4.742;2024-03-08T05:02:07;12.20;;;6.75;;
54881;SDS011;40775;51.448;4.742;2024-03-08T05:04:35;10.90;;;5.60;;
54881;SDS011;40775;51.448;4.742;2024-03-08T05:07:02;11.35;;;5.97;;
54881;SDS011;40775;51.448;4.742;2024-03-08T05:09:30;9.95;;;5.43;;
54881;SDS011;40775;51.448;4.742;2024-03-08T05:11:58;10.23;;;6.28;;
54881;SDS011;40775;51.448;4.742;2024-03-08T05:14:26;12.48;;;6.25;;
54881;SDS011;40775;51.448;4.742;2024-03-08T05:16:53;10.32;;;5.72;;
54881;SDS011;40775;51.448;4.742;2024-03-08T05:19:20;8.63;;;5.50;;
54881;SDS011;40775;51.448;4.742;2024-03-08T05:21:48;11.07;;;5.80;;
54881;SDS011;40775;51.448;4.742;2024-03-08T05:24:16;10.52;;;6.10;;
54881;SDS011;40775;51.448;4.742;2024-03-08T05:26:45;11.60;;;6.60;;
54881;SDS011;40775;51.448;4.742;2024-03-08T05:29:13;9.65;;;5.57;;
54881;SDS011;40775;51.448;4.742;2024-03-08T05:31:47;11.50;;;6.65;;
54881;SDS011;40775;51.448;4.742;2024-03-08T05:34:16;12.15;;;5.82;;
54881;SDS011;40775;51.448;4.742;2024-03-08T05:36:45;11.05;;;7.05;;
54881;SDS011;40775;51.448;4.742;2024-03-08T05:39:13;11.30;;;5.97;;
54881;SDS011;40775;51.448;4.742;2024-03-08T05:41:41;9.43;;;6.28;;
54881;SDS011;40775;51.448;4.742;2024-03-08T05:44:08;10.63;;;6.55;;
54881;SDS011;40775;51.448;4.742;2024-03-08T05:46:37;11.60;;;6.07;;
54881;SDS011;40775;51.448;4.742;2024-03-08T05:49:05;12.80;;;7.20;;
54881;SDS011;40775;51.448;4.742;2024-03-08T05:51:33;11.15;;;6.22;;
54881;SDS011;40775;51.448;4.742;2024-03-08T05:54:02;12.43;;;6.40;;
54881;SDS011;40775;51.448;4.742;2024-03-08T05:56:32;13.00;;;7.22;;
54881;SDS011;40775;51.448;4.742;2024-03-08T05:58:59;9.05;;;6.35;;
54881;SDS011;40775;51.448;4.742;2024-03-08T06:01:27;11.02;;;6.32;;
54881;SDS011;40775;51.448;4.742;2024-03-08T06:03:56;13.45;;;6.50;;
54881;SDS011;40775;51.448;4.742;2024-03-08T06:06:23;11.32;;;7.07;;
54881;SDS011;40775;51.448;4.742;2024-03-08T06:08:51;12.35;;;6.70;;
54881;SDS011;40775;51.448;4.742;2024-03-08T06:11:19;13.25;;;7.88;;
54881;SDS011;40775;51.448;4.742;2024-03-08T06:13:47;14.60;;;8.02;;
54881;SDS011;40775;51.448;4.742;2024-03-08T06:16:16;11.80;;;6.75;;
54881;SDS011;40775;51.448;4.742;2024-03-08T06:18:43;11.73;;;6.93;;
54881;SDS011;40775;51.448;4.742;2024-03-08T06:21:10;13.90;;;7.57;;
54881;SDS011;40775;51.448;4.742;2024-03-08T06:23:38;13.23;;;6.45;;
54881;SDS011;40775;51.448;4.742;2024-03-08T06:26:07;10.88;;;6.38;;
54881;SDS011;40775;51.448;4.742;2024-03-08T06:28:34;10.70;;;6.28;;
54881;SDS011;40775;51.448;4.742;2024-03-08T06:31:02;15.18;;;6.90;;
54881;SDS011;40775;51.448;4.742;2024-03-08T06:33:29;14.35;;;7.38;;
54881;SDS011;40775;51.448;4.742;2024-03-08T06:35:59;10.68;;;6.32;;
54881;SDS011;40775;51.448;4.742;2024-03-08T06:38:26;13.57;;;7.18;;
54881;SDS011;40775;51.448;4.742;2024-03-08T06:40:53;12.68;;;6.43;;
54881;SDS011;40775;51.448;4.742;2024-03-08T06:43:21;10.98;;;6.57;;
54881;SDS011;40775;51.448;4.742;2024-03-08T06:45:48;11.20;;;6.43;;
54881;SDS011;40775;51.448;4.742;2024-03-08T06:48:16;10.82;;;6.90;;
54881;SDS011;40775;51.448;4.742;2024-03-08T06:50:47;9.02;;;6.40;;
54881;SDS011;40775;51.448;4.742;2024-03-08T06:53:14;11.07;;;6.88;;
54881;SDS011;40775;51.448;4.742;2024-03-08T06:55:44;15.80;;;7.72;;
54881;SDS011;40775;51.448;4.742;2024-03-08T06:58:11;12.25;;;7.00;;
54881;SDS011;40775;51.448;4.742;2024-03-08T07:00:39;12.68;;;7.03;;
54881;SDS011;40775;51.448;4.742;2024-03-08T07:03:08;12.63;;;7.25;;
54881;SDS011;40775;51.448;4.742;2024-03-08T07:05:38;12.68;;;6.50;;
54881;SDS011;40775;51.448;4.742;2024-03-08T07:08:06;14.00;;;7.00;;
54881;SDS011;40775;51.448;4.742;2024-03-08T07:10:34;15.60;;;6.10;;
54881;SDS011;40775;51.448;4.742;2024-03-08T07:13:01;11.07;;;6.65;;
54881;SDS011;40775;51.448;4.742;2024-03-08T07:15:29;13.48;;;7.35;;
54881;SDS011;40775;51.448;4.742;2024-03-08T07:17:56;12.75;;;7.38;;
54881;SDS011;40775;51.448;4.742;2024-03-08T07:20:23;12.45;;;6.95;;
54881;SDS011;40775;51.448;4.742;2024-03-08T07:22:50;12.20;;;6.63;;
54881;SDS011;40775;51.448;4.742;2024-03-08T07:25:17;13.77;;;7.07;;
54881;SDS011;40775;51.448;4.742;2024-03-08T07:27:45;12.00;;;6.38;;
54881;SDS011;40775;51.448;4.742;2024-03-08T07:30:19;10.00;;;6.20;;
54881;SDS011;40775;51.448;4.742;2024-03-08T07:33:09;10.55;;;6.53;;
54881;SDS011;40775;51.448;4.742;2024-03-08T07:35:41;11.23;;;6.22;;
54881;SDS011;40775;51.448;4.742;2024-03-08T07:38:09;10.80;;;6.90;;
54881;SDS011;40775;51.448;4.742;2024-03-08T07:40:36;11.23;;;6.03;;
54881;SDS011;40775;51.448;4.742;2024-03-08T07:43:07;11.00;;;6.55;;
54881;SDS011;40775;51.448;4.742;2024-03-08T07:45:34;13.38;;;6.85;;
54881;SDS011;40775;51.448;4.742;2024-03-08T07:48:02;11.40;;;7.22;;
54881;SDS011;40775;51.448;4.742;2024-03-08T07:50:30;11.57;;;6.88;;
54881;SDS011;40775;51.448;4.742;2024-03-08T07:52:59;12.63;;;7.30;;
54881;SDS011;40775;51.448;4.742;2024-03-08T07:55:27;14.98;;;7.25;;
54881;SDS011;40775;51.448;4.742;2024-03-08T07:57:55;11.20;;;6.68;;
54881;SDS011;40775;51.448;4.742;2024-03-08T08:00:22;12.05;;;6.47;;
54881;SDS011;40775;51.448;4.742;2024-03-08T08:02:50;12.48;;;7.72;;
54881;SDS011;40775;51.448;4.742;2024-03-08T08:05:17;11.77;;;6.65;;
54881;SDS011;40775;51.448;4.742;2024-03-08T08:07:44;11.93;;;6.95;;
54881;SDS011;40775;51.448;4.742;2024-03-08T08:10:16;12.65;;;7.68;;
54881;SDS011;40775;51.448;4.742;2024-03-08T08:12:48;13.85;;;7.72;;
54881;SDS011;40775;51.448;4.742;2024-03-08T08:15:15;12.15;;;7.13;;
54881;SDS011;40775;51.448;4.742;2024-03-08T08:17:42;13.50;;;8.00;;
54881;SDS011;40775;51.448;4.742;2024-03-08T08:20:11;13.23;;;7.68;;
54881;SDS011;40775;51.448;4.742;2024-03-08T08:22:42;12.52;;;6.63;;
54881;SDS011;40775;51.448;4.742;2024-03-08T08:25:09;12.35;;;7.75;;
54881;SDS011;40775;51.448;4.742;2024-03-08T08:27:41;12.13;;;6.82;;
54881;SDS011;40775;51.448;4.742;2024-03-08T08:30:09;12.23;;;6.50;;
54881;SDS011;40775;51.448;4.742;2024-03-08T08:32:38;12.18;;;6.63;;
54881;SDS011;40775;51.448;4.742;2024-03-08T08:35:08;11.73;;;6.93;;
54881;SDS011;40775;51.448;4.742;2024-03-08T08:37:39;10.63;;;7.00;;
54881;SDS011;40775;51.448;4.742;2024-03-08T08:40:07;12.05;;;7.32;;
54881;SDS011;40775;51.448;4.742;2024-03-08T08:42:41;12.38;;;7.20;;
54881;SDS011;40775;51.448;4.742;2024-03-08T08:45:09;11.68;;;6.97;;
54881;SDS011;40775;51.448;4.742;2024-03-08T08:47:43;14.13;;;6.97;;
54881;SDS011;40775;51.448;4.742;2024-03-08T08:50:12;13.43;;;7.22;;
54881;SDS011;40775;51.448;4.742;2024-03-08T08:52:39;13.27;;;7.35;;
54881;SDS011;40775;51.448;4.742;2024-03-08T08:55:07;13.35;;;7.55;;
54881;SDS011;40775;51.448;4.742;2024-03-08T08:57:35;12.93;;;7.07;;
54881;SDS011;40775;51.448;4.742;2024-03-08T09:00:02;11.57;;;7.20;;
54881;SDS011;40775;51.448;4.742;2024-03-08T09:02:33;11.15;;;6.97;;
54881;SDS011;40775;51.448;4.742;2024-03-08T09:05:01;13.25;;;7.55;;
54881;SDS011;40775;51.448;4.742;2024-03-08T09:07:31;10.40;;;6.88;;
54881;SDS011;40775;51.448;4.742;2024-03-08T09:10:00;14.45;;;7.80;;
54881;SDS011;40775;51.448;4.742;2024-03-08T09:12:33;14.82;;;7.32;;
54881;SDS011;40775;51.448;4.742;2024-03-08T09:15:00;11.98;;;6.97;;
54881;SDS011;40775;51.448;4.742;2024-03-08T09:17:28;11.32;;;7.20;;
54881;SDS011;40775;51.448;4.742;2024-03-08T09:19:55;12.50;;;7.57;;
54881;SDS011;40775;51.448;4.742;2024-03-08T09:22:24;11.95;;;6.97;;
54881;SDS011;40775;51.448;4.742;2024-03-08T09:24:51;13.45;;;7.57;;
54881;SDS011;40775;51.448;4.742;2024-03-08T09:27:18;12.18;;;7.25;;
54881;SDS011;40775;51.448;4.742;2024-03-08T09:29:46;13.13;;;7.60;;
54881;SDS011;40775;51.448;4.742;2024-03-08T09:32:13;12.25;;;7.18;;
54881;SDS011;40775;51.448;4.742;2024-03-08T09:34:40;13.57;;;6.25;;
54881;SDS011;40775;51.448;4.742;2024-03-08T09:37:07;13.85;;;7.97;;
54881;SDS011;40775;51.448;4.742;2024-03-08T09:39:35;14.50;;;8.65;;
54881;SDS011;40775;51.448;4.742;2024-03-08T09:42:02;11.82;;;7.05;;
54881;SDS011;40775;51.448;4.742;2024-03-08T09:44:30;13.55;;;6.50;;
54881;SDS011;40775;51.448;4.742;2024-03-08T09:47:00;10.77;;;6.70;;
54881;SDS011;40775;51.448;4.742;2024-03-08T09:49:28;13.05;;;7.53;;
54881;SDS011;40775;51.448;4.742;2024-03-08T09:51:56;11.75;;;7.13;;
54881;SDS011;40775;51.448;4.742;2024-03-08T09:54:23;10.25;;;6.05;;
54881;SDS011;40775;51.448;4.742;2024-03-08T09:56:52;10.20;;;6.30;;
54881;SDS011;40775;51.448;4.742;2024-03-08T09:59:19;13.52;;;6.57;;
54881;SDS011;40775;51.448;4.742;2024-03-08T10:01:49;12.27;;;7.13;;
54881;SDS011;40775;51.448;4.742;2024-03-08T10:04:18;11.77;;;7.07;;
54881;SDS011;40775;51.448;4.742;2024-03-08T10:06:47;13.02;;;7.13;;
54881;SDS011;40775;51.448;4.742;2024-03-08T10:09:14;9.80;;;6.10;;
54881;SDS011;40775;51.448;4.742;2024-03-08T10:11:43;13.82;;;7.07;;
54881;SDS011;40775;51.448;4.742;2024-03-08T10:14:10;10.95;;;6.38;;
54881;SDS011;40775;51.448;4.742;2024-03-08T10:16:38;11.02;;;6.05;;
54881;SDS011;40775;51.448;4.742;2024-03-08T10:19:06;11.95;;;6.43;;
54881;SDS011;40775;51.448;4.742;2024-03-08T10:21:34;11.75;;;6.80;;
54881;SDS011;40775;51.448;4.742;2024-03-08T10:24:02;11.25;;;6.22;;
54881;SDS011;40775;51.448;4.742;2024-03-08T10:26:29;12.50;;;6.85;;
54881;SDS011;40775;51.448;4.742;2024-03-08T10:28:57;13.75;;;6.93;;
54881;SDS011;40775;51.448;4.742;2024-03-08T10:31:24;12.55;;;7.00;;
54881;SDS011;40775;51.448;4.742;2024-03-08T10:33:52;9.25;;;5.65;;
54881;SDS011;40775;51.448;4.742;2024-03-08T10:36:19;10.63;;;5.93;;
54881;SDS011;40775;51.448;4.742;2024-03-08T10:38:46;9.70;;;6.05;;
54881;SDS011;40775;51.448;4.742;2024-03-08T10:41:16;10.13;;;5.72;;
54881;SDS011;40775;51.448;4.742;2024-03-08T10:43:48;12.90;;;6.63;;
54881;SDS011;40775;51.448;4.742;2024-03-08T10:50:18;11.82;;;6.13;;
54881;SDS011;40775;51.448;4.742;2024-03-08T10:52:51;12.23;;;6.47;;
54881;SDS011;40775;51.448;4.742;2024-03-08T10:55:19;11.60;;;6.63;;
54881;SDS011;40775;51.448;4.742;2024-03-08T10:57:47;9.27;;;5.40;;
54881;SDS011;40775;51.448;4.742;2024-03-08T11:00:14;10.90;;;5.60;;
54881;SDS011;40775;51.448;4.742;2024-03-08T11:02:53;8.52;;;5.47;;
54881;SDS011;40775;51.448;4.742;2024-03-08T11:05:36;11.32;;;5.95;;
54881;SDS011;40775;51.448;4.742;2024-03-08T11:10:48;10.98;;;6.10;;
54881;SDS011;40775;51.448;4.742;2024-03-08T11:16:10;10.50;;;5.38;;
54881;SDS011;40775;51.448;4.742;2024-03-08T11:18:38;9.43;;;5.90;;
54881;SDS011;40775;51.448;4.742;2024-03-08T11:21:09;10.80;;;5.30;;
54881;SDS011;40775;51.448;4.742;2024-03-08T11:23:39;10.07;;;5.82;;
54881;SDS011;40775;51.448;4.742;2024-03-08T11:26:20;11.38;;;6.15;;
54881;SDS011;40775;51.448;4.742;2024-03-08T11:28:49;13.30;;;6.00;;
54881;SDS011;40775;51.448;4.742;2024-03-08T11:31:23;12.05;;;6.47;;
54881;SDS011;40775;51.448;4.742;2024-03-08T11:33:53;9.90;;;5.25;;
54881;SDS011;40775;51.448;4.742;2024-03-08T11:36:21;9.80;;;5.78;;
54881;SDS011;40775;51.448;4.742;2024-03-08T11:38:51;11.32;;;6.45;;
54881;SDS011;40775;51.448;4.742;2024-03-08T11:41:22;10.13;;;4.95;;
54881;SDS011;40775;51.448;4.742;2024-03-08T11:44:01;11.00;;;5.10;;
54881;SDS011;40775;51.448;4.742;2024-03-08T11:46:32;11.82;;;5.55;;
54881;SDS011;40775;51.448;4.742;2024-03-08T11:49:00;8.68;;;5.03;;
54881;SDS011;40775;51.448;4.742;2024-03-08T11:51:27;11.50;;;6.10;;
54881;SDS011;40775;51.448;4.742;2024-03-08T11:53:54;11.25;;;5.88;;
54881;SDS011;40775;51.448;4.742;2024-03-08T11:56:22;9.18;;;5.53;;
54881;SDS011;40775;51.448;4.742;2024-03-08T11:58:53;8.63;;;5.28;;
54881;SDS011;40775;51.448;4.742;2024-03-08T12:01:25;8.63;;;4.63;;
54881;SDS011;40775;51.448;4.742;2024-03-08T12:03:53;8.95;;;4.95;;
54881;SDS011;40775;51.448;4.742;2024-03-08T12:06:21;10.32;;;5.50;;
54881;SDS011;40775;51.448;4.742;2024-03-08T12:08:49;9.00;;;5.40;;
54881;SDS011;40775;51.448;4.742;2024-03-08T12:11:17;8.15;;;4.80;;
54881;SDS011;40775;51.448;4.742;2024-03-08T12:13:50;7.90;;;4.30;;
54881;SDS011;40775;51.448;4.742;2024-03-08T12:16:18;10.55;;;5.28;;
54881;SDS011;40775;51.448;4.742;2024-03-08T12:18:47;10.18;;;4.97;;
54881;SDS011;40775;51.448;4.742;2024-03-08T12:21:14;9.27;;;5.00;;
54881;SDS011;40775;51.448;4.742;2024-03-08T12:23:46;7.75;;;4.03;;
54881;SDS011;40775;51.448;4.742;2024-03-08T12:26:24;9.38;;;4.63;;
54881;SDS011;40775;51.448;4.742;2024-03-08T12:28:52;12.00;;;5.18;;
54881;SDS011;40775;51.448;4.742;2024-03-08T12:31:20;7.40;;;4.47;;
54881;SDS011;40775;51.448;4.742;2024-03-08T12:33:52;6.85;;;4.43;;
54881;SDS011;40775;51.448;4.742;2024-03-08T12:36:23;9.20;;;5.07;;
54881;SDS011;40775;51.448;4.742;2024-03-08T12:38:52;9.10;;;5.03;;
54881;SDS011;40775;51.448;4.742;2024-03-08T12:41:23;6.53;;;4.10;;
54881;SDS011;40775;51.448;4.742;2024-03-08T12:43:50;7.78;;;4.57;;
54881;SDS011;40775;51.448;4.742;2024-03-08T12:46:18;12.73;;;5.72;;
54881;SDS011;40775;51.448;4.742;2024-03-08T12:48:47;10.88;;;5.50;;
54881;SDS011;40775;51.448;4.742;2024-03-08T12:51:15;9.38;;;4.38;;
54881;SDS011;40775;51.448;4.742;2024-03-08T12:53:44;10.93;;;5.10;;
54881;SDS011;40775;51.448;4.742;2024-03-08T12:56:12;9.45;;;4.78;;
54881;SDS011;40775;51.448;4.742;2024-03-08T12:58:46;8.52;;;4.90;;
54881;SDS011;40775;51.448;4.742;2024-03-08T13:01:14;10.80;;;5.43;;
54881;SDS011;40775;51.448;4.742;2024-03-08T13:03:44;9.63;;;5.30;;
54881;SDS011;40775;51.448;4.742;2024-03-08T13:06:11;9.15;;;5.13;;
54881;SDS011;40775;51.448;4.742;2024-03-08T13:08:38;9.85;;;5.43;;
54881;SDS011;40775;51.448;4.742;2024-03-08T13:11:10;9.97;;;4.67;;
54881;SDS011;40775;51.448;4.742;2024-03-08T13:13:38;11.18;;;5.25;;
54881;SDS011;40775;51.448;4.742;2024-03-08T13:16:06;8.20;;;5.03;;
54881;SDS011;40775;51.448;4.742;2024-03-08T13:18:35;8.88;;;4.63;;
54881;SDS011;40775;51.448;4.742;2024-03-08T13:21:02;8.32;;;4.63;;
54881;SDS011;40775;51.448;4.742;2024-03-08T13:23:34;7.63;;;3.50;;
54881;SDS011;40775;51.448;4.742;2024-03-08T13:26:12;7.68;;;4.78;;
54881;SDS011;40775;51.448;4.742;2024-03-08T13:28:42;9.02;;;4.70;;
54881;SDS011;40775;51.448;4.742;2024-03-08T13:31:12;6.82;;;4.45;;
54881;SDS011;40775;51.448;4.742;2024-03-08T13:33:41;9.65;;;4.72;;
54881;SDS011;40775;51.448;4.742;2024-03-08T13:36:08;8.18;;;4.07;;
54881;SDS011;40775;51.448;4.742;2024-03-08T13:38:42;8.85;;;4.72;;
54881;SDS011;40775;51.448;4.742;2024-03-08T13:41:11;8.75;;;4.88;;
54881;SDS011;40775;51.448;4.742;2024-03-08T13:43:41;8.95;;;4.45;;
54881;SDS011;40775;51.448;4.742;2024-03-08T13:46:08;9.35;;;4.78;;
54881;SDS011;40775;51.448;4.742;2024-03-08T13:48:38;8.05;;;4.35;;
54881;SDS011;40775;51.448;4.742;2024-03-08T13:51:05;8.45;;;4.60;;
54881;SDS011;40775;51.448;4.742;2024-03-08T13:53:33;9.43;;;4.40;;
54881;SDS011;40775;51.448;4.742;2024-03-08T13:56:03;7.72;;;4.10;;
54881;SDS011;40775;51.448;4.742;2024-03-08T13:58:32;9.95;;;4.57;;
54881;SDS011;40775;51.448;4.742;2024-03-08T14:00:59;9.50;;;4.75;;
54881;SDS011;40775;51.448;4.742;2024-03-08T14:03:27;8.10;;;4.60;;
54881;SDS011;40775;51.448;4.742;2024-03-08T14:05:54;7.82;;;4.38;;
54881;SDS011;40775;51.448;4.742;2024-03-08T14:08:22;7.97;;;4.53;;
54881;SDS011;40775;51.448;4.742;2024-03-08T14:10:50;8.80;;;4.20;;
54881;SDS011;40775;51.448;4.742;2024-03-08T14:13:20;11.13;;;4.55;;
54881;SDS011;40775;51.448;4.742;2024-03-08T14:15:47;6.80;;;3.30;;
54881;SDS011;40775;51.448;4.742;2024-03-08T14:18:14;6.63;;;3.70;;
54881;SDS011;40775;51.448;4.742;2024-03-08T14:20:42;6.30;;;3.47;;
54881;SDS011;40775;51.448;4.742;2024-03-08T14:23:09;6.85;;;3.95;;
54881;SDS011;40775;51.448;4.742;2024-03-08T14:25:36;7.18;;;4.15;;
54881;SDS011;40775;51.448;4.742;2024-03-08T14:28:03;7.57;;;3.72;;
54881;SDS011;40775;51.448;4.742;2024-03-08T14:30:34;6.10;;;3.75;;
54881;SDS011;40775;51.448;4.742;2024-03-08T14:33:02;7.70;;;4.40;;
54881;SDS011;40775;51.448;4.742;2024-03-08T14:35:31;7.68;;;3.95;;
54881;SDS011;40775;51.448;4.742;2024-03-08T14:37:58;8.52;;;4.25;;
54881;SDS011;40775;51.448;4.742;2024-03-08T14:40:27;7.85;;;3.90;;
54881;SDS011;40775;51.448;4.742;2024-03-08T14:42:54;6.85;;;3.85;;
54881;SDS011;40775;51.448;4.742;2024-03-08T14:45:22;8.32;;;4.70;;
54881;SDS011;40775;51.448;4.742;2024-03-08T14:47:50;8.30;;;4.60;;
54881;SDS011;40775;51.448;4.742;2024-03-08T14:50:18;9.82;;;4.60;;
54881;SDS011;40775;51.448;4.742;2024-03-08T14:52:49;7.97;;;4.63;;
54881;SDS011;40775;51.448;4.742;2024-03-08T14:55:20;6.78;;;4.03;;
54881;SDS011;40775;51.448;4.742;2024-03-08T14:57:48;8.25;;;4.53;;